LFAT 301030Z AUTO 08007KT 030V140 CAVOK 23/06 Q1022

ElémentsDécodage
LFAT Station météo située sur l'aérodrome de LE-TOUQUET Paris-Plage
301030Z émis le 30 du mois à 10h30 UTC
AUTO Bulletin édité par un automate
08007KT vent du 080°, 07 noeuds
030V140 vent de direction variable entre 030° et 140°
CAVOK Ceiling And Visibility OK
- Visibilité de 10 Km ou plus
- Pas de nuage au-dessous de 1500m ou au-dessous de l'altitude minimale du secteur la plus élevée (si>1500m) et absence de CB
- pas de temps présent significatif
23/06 température 23°C, point de rosée 06°C
 soit une humidité relative de 33%
Q1022 la pression au niveau de la mer (QNH) est de 1022 hPa